Time;durP1;ratioP1;P1;durP2;ratioP2;P2;SDS_P1;SDS_P2;PMS_P1;PMS_P2;Temp;Humidity;BMP_temperature;BMP_pressure;BME280_temperature;BME280_humidity;BME280_pressure;Samples;Min_cycle;Max_cycle;Signal;HPM_P1;HPM_P2
2021/10/25 00:00:48;;;;;;;880.28;539.75;;;;;;;;;;5042847;28;20072;-78
2021/10/25 00:03:14;;;;;;;868.78;494.73;;;;;;;;;;5036831;28;20028;-79
2021/10/25 00:05:40;;;;;;;873.72;513.33;;;;;;;;;;5043028;28;20401;-78
2021/10/25 00:08:06;;;;;;;869.60;503.00;;;;;;;;;;5028420;28;20114;-79
2021/10/25 00:10:34;;;;;;;882.15;530.20;;;;;;;;;;5041848;28;20066;-79
2021/10/25 00:13:00;;;;;;;869.42;504.23;;;;;;;;;;5041340;28;20530;-79
2021/10/25 00:15:26;;;;;;;878.92;533.40;;;;;;;;;;5049239;28;20040;-79
2021/10/25 00:17:53;;;;;;;875.15;531.28;;;;;;;;;;5064258;28;20044;-79
2021/10/25 00:20:19;;;;;;;877.13;534.40;;;;;;;;;;5076637;28;20024;-79
2021/10/25 00:22:45;;;;;;;877.08;528.70;;;;;;;;;;5064045;28;20555;-79
2021/10/25 00:25:11;;;;;;;872.95;517.65;;;;;;;;;;5074701;28;20056;-79
2021/10/25 00:27:37;;;;;;;879.95;542.60;;;;;;;;;;5060828;28;20054;-79
2021/10/25 00:30:04;;;;;;;873.10;523.30;;;;;;;;;;5067543;28;20020;-79
2021/10/25 00:32:30;;;;;;;873.75;523.88;;;;;;;;;;5084755;28;20039;-80
2021/10/25 00:34:56;;;;;;;872.13;520.95;;;;;;;;;;5059354;28;20041;-80
2021/10/25 00:37:23;;;;;;;882.63;553.40;;;;;;;;;;5063379;28;20024;-80
2021/10/25 00:39:49;;;;;;;868.75;511.65;;;;;;;;;;5061316;28;20043;-79
2021/10/25 00:42:15;;;;;;;875.03;528.35;;;;;;;;;;5078346;28;20488;-80
2021/10/25 00:44:41;;;;;;;871.90;523.80;;;;;;;;;;5051031;28;20090;-79
2021/10/25 00:47:07;;;;;;;863.67;490.40;;;;;;;;;;5061725;28;20089;-79
2021/10/25 00:49:34;;;;;;;871.72;515.83;;;;;;;;;;5061210;28;20016;-79
2021/10/25 00:52:00;;;;;;;875.90;526.60;;;;;;;;;;5065493;28;20388;-79
2021/10/25 00:54:26;;;;;;;879.88;544.38;;;;;;;;;;5067109;28;20031;-79
2021/10/25 00:56:52;;;;;;;871.92;520.60;;;;;;;;;;5062863;28;20059;-80
2021/10/25 00:59:18;;;;;;;873.60;526.28;;;;;;;;;;5072126;28;20043;-78
2021/10/25 01:01:45;;;;;;;874.33;534.80;;;;;;;;;;5065227;28;20473;-79
2021/10/25 01:04:11;;;;;;;878.30;546.58;;;;;;;;;;5055840;28;20038;-78
2021/10/25 01:06:38;;;;;;;865.47;499.83;;;;;;;;;;5058139;28;20032;-78
2021/10/25 01:09:05;;;;;;;884.92;562.03;;;;;;;;;;5049541;28;20384;-79
2021/10/25 01:11:31;;;;;;;878.22;543.83;;;;;;;;;;5066484;28;20066;-79
2021/10/25 01:13:57;;;;;;;885.67;569.30;;;;;;;;;;5053363;28;20588;-78
2021/10/25 01:16:23;;;;;;;882.80;560.67;;;;;;;;;;5069944;28;20104;-79
2021/10/25 01:18:49;;;;;;;882.88;564.72;;;;;;;;;;5052714;28;20025;-78
2021/10/25 01:21:16;;;;;;;879.13;558.17;;;;;;;;;;5074019;28;20355;-79
2021/10/25 01:23:42;;;;;;;872.67;546.00;;;;;;;;;;5080056;28;20028;-79
2021/10/25 01:26:08;;;;;;;884.42;571.25;;;;;;;;;;5062131;28;20248;-78
2021/10/25 01:28:34;;;;;;;880.85;564.42;;;;;;;;;;5069564;28;20028;-79
2021/10/25 01:31:00;;;;;;;890.10;595.47;;;;;;;;;;5066329;28;20096;-80
2021/10/25 01:33:32;;;;;;;881.53;574.83;;;;;;;;;;5056526;28;20067;-79
2021/10/25 01:35:58;;;;;;;890.05;598.40;;;;;;;;;;5075118;28;20064;-79
2021/10/25 01:38:25;;;;;;;891.90;597.08;;;;;;;;;;5052660;28;20067;-79
2021/10/25 01:40:51;;;;;;;890.83;605.33;;;;;;;;;;5062312;28;20531;-78
2021/10/25 01:43:17;;;;;;;887.13;588.78;;;;;;;;;;5065111;28;20028;-79
2021/10/25 01:45:47;;;;;;;882.10;573.33;;;;;;;;;;5067333;28;20540;-79
2021/10/25 01:48:13;;;;;;;891.28;602.22;;;;;;;;;;5065615;28;20461;-76
2021/10/25 01:50:39;;;;;;;881.95;571.05;;;;;;;;;;5053386;28;20059;-78
2021/10/25 01:53:06;;;;;;;888.08;589.92;;;;;;;;;;5058812;28;20068;-78
2021/10/25 01:55:32;;;;;;;886.40;586.97;;;;;;;;;;5065075;28;20028;-79
2021/10/25 01:57:58;;;;;;;886.03;591.25;;;;;;;;;;5087087;28;20129;-78
2021/10/25 02:00:24;;;;;;;891.58;607.80;;;;;;;;;;5077001;28;20252;-79
2021/10/25 02:02:51;;;;;;;882.10;579.25;;;;;;;;;;5070231;28;20040;-78
2021/10/25 02:05:17;;;;;;;890.88;597.90;;;;;;;;;;5056385;28;20066;-78
2021/10/25 02:07:42;;;;;;;889.63;593.47;;;;;;;;;;5080360;28;20095;-79
2021/10/25 02:10:09;;;;;;;888.45;591.40;;;;;;;;;;5065785;28;20039;-78
2021/10/25 02:12:35;;;;;;;892.00;602.78;;;;;;;;;;5068680;28;20054;-78
2021/10/25 02:15:01;;;;;;;894.15;615.40;;;;;;;;;;5077318;28;20098;-78
2021/10/25 02:17:27;;;;;;;891.30;605.63;;;;;;;;;;5060701;28;20037;-78
2021/10/25 02:19:53;;;;;;;890.92;607.28;;;;;;;;;;5061667;28;20025;-78
2021/10/25 02:22:19;;;;;;;892.20;603.67;;;;;;;;;;5040115;28;20492;-76
2021/10/25 02:24:47;;;;;;;887.95;598.50;;;;;;;;;;5046978;28;20158;-79
2021/10/25 02:27:13;;;;;;;891.22;601.75;;;;;;;;;;5040754;28;20031;-78
2021/10/25 02:29:40;;;;;;;893.25;608.03;;;;;;;;;;5048230;28;20048;-79
2021/10/25 02:32:07;;;;;;;890.05;600.38;;;;;;;;;;5047387;28;20040;-78
2021/10/25 02:34:33;;;;;;;884.88;584.85;;;;;;;;;;5046324;28;20029;-78
2021/10/25 02:36:59;;;;;;;886.03;590.50;;;;;;;;;;5055288;28;20119;-78
2021/10/25 02:39:27;;;;;;;893.72;615.58;;;;;;;;;;5055849;28;20033;-79
2021/10/25 02:41:54;;;;;;;885.08;588.90;;;;;;;;;;5063964;28;20028;-79
2021/10/25 02:44:19;;;;;;;892.65;615.60;;;;;;;;;;5046417;28;20429;-79
2021/10/25 02:46:46;;;;;;;896.00;628.58;;;;;;;;;;5037562;28;20025;-79
2021/10/25 02:49:11;;;;;;;897.03;628.78;;;;;;;;;;5039829;28;20228;-80
2021/10/25 02:51:37;;;;;;;895.80;625.15;;;;;;;;;;5040198;28;20029;-79
2021/10/25 02:54:04;;;;;;;894.35;627.20;;;;;;;;;;5064112;28;20120;-78
2021/10/25 02:56:30;;;;;;;899.22;636.65;;;;;;;;;;5044454;28;20429;-79
2021/10/25 02:58:56;;;;;;;897.35;634.08;;;;;;;;;;5048009;28;20035;-78
2021/10/25 03:01:22;;;;;;;900.95;642.85;;;;;;;;;;5040410;28;20024;-78
2021/10/25 03:03:49;;;;;;;892.97;623.42;;;;;;;;;;5049836;28;20026;-80
2021/10/25 03:06:15;;;;;;;895.33;633.88;;;;;;;;;;5056003;28;20040;-80
2021/10/25 03:08:41;;;;;;;895.08;625.75;;;;;;;;;;5057311;28;20030;-80
2021/10/25 03:11:07;;;;;;;899.13;642.60;;;;;;;;;;5034885;28;20026;-80
2021/10/25 03:13:33;;;;;;;903.92;659.28;;;;;;;;;;5055079;28;20432;-80
2021/10/25 03:15:59;;;;;;;899.17;645.80;;;;;;;;;;5049568;28;20477;-80
2021/10/25 03:18:25;;;;;;;896.85;640.47;;;;;;;;;;5058852;28;20086;-79
2021/10/25 03:20:52;;;;;;;894.47;629.47;;;;;;;;;;5066831;28;20028;-79
2021/10/25 03:23:18;;;;;;;898.03;638.17;;;;;;;;;;5066784;28;20033;-79
2021/10/25 03:25:44;;;;;;;898.03;639.63;;;;;;;;;;5057969;28;20099;-80
2021/10/25 03:28:10;;;;;;;895.03;629.88;;;;;;;;;;5063574;28;20524;-80
2021/10/25 03:30:37;;;;;;;900.10;644.58;;;;;;;;;;5047885;28;20127;-79
2021/10/25 03:33:03;;;;;;;897.78;640.28;;;;;;;;;;5074203;28;20112;-79
2021/10/25 03:35:29;;;;;;;901.95;654.53;;;;;;;;;;5057460;28;20086;-79
2021/10/25 03:37:57;;;;;;;902.97;651.40;;;;;;;;;;5059470;28;20132;-79
2021/10/25 03:40:23;;;;;;;900.25;658.95;;;;;;;;;;5052032;28;20025;-77
2021/10/25 03:42:52;;;;;;;897.70;642.75;;;;;;;;;;5055912;28;20028;-76
2021/10/25 03:50:17;;;;;;;903.10;664.95;;;;;;;;;;5058025;28;20452;-79
2021/10/25 03:52:51;;;;;;;906.17;674.88;;;;;;;;;;5064286;28;20029;-79
2021/10/25 03:55:37;;;;;;;902.30;658.30;;;;;;;;;;5067064;28;20032;-78
2021/10/25 04:30:11;;;;;;;900.53;654.35;;;;;;;;;;5087311;28;20035;-78
2021/10/25 04:32:37;;;;;;;901.90;655.22;;;;;;;;;;5087007;28;20396;-78
2021/10/25 04:35:04;;;;;;;902.70;667.47;;;;;;;;;;5072229;28;20498;-78
2021/10/25 04:37:30;;;;;;;894.97;644.53;;;;;;;;;;5078094;28;20407;-77
2021/10/25 04:39:56;;;;;;;899.95;656.55;;;;;;;;;;5068887;28;20032;-79
2021/10/25 04:42:22;;;;;;;900.25;660.65;;;;;;;;;;5085496;28;20030;-79
2021/10/25 04:44:49;;;;;;;894.63;643.13;;;;;;;;;;5085448;28;20070;-79
2021/10/25 04:47:15;;;;;;;901.17;660.20;;;;;;;;;;5069010;28;20038;-78
2021/10/25 04:49:41;;;;;;;902.33;657.97;;;;;;;;;;5088095;28;20043;-80
2021/10/25 04:52:08;;;;;;;895.63;636.55;;;;;;;;;;5073473;28;20024;-79
2021/10/25 04:54:34;;;;;;;900.30;663.67;;;;;;;;;;5090091;28;20032;-79
2021/10/25 04:57:01;;;;;;;900.85;661.47;;;;;;;;;;5072005;28;20085;-80
2021/10/25 04:59:27;;;;;;;896.55;650.55;;;;;;;;;;5074995;28;20467;-80
2021/10/25 05:01:53;;;;;;;901.17;669.05;;;;;;;;;;5077693;28;20086;-80
2021/10/25 05:04:18;;;;;;;902.80;660.78;;;;;;;;;;5091098;28;20400;-80
2021/10/25 05:06:45;;;;;;;901.55;662.38;;;;;;;;;;5072788;28;20267;-80
2021/10/25 05:09:11;;;;;;;900.38;661.67;;;;;;;;;;5090595;28;20472;-79
2021/10/25 05:11:38;;;;;;;899.97;664.35;;;;;;;;;;5078311;28;20527;-80
2021/10/25 05:14:04;;;;;;;902.70;670.00;;;;;;;;;;5071084;28;20483;-80
2021/10/25 05:16:30;;;;;;;900.78;662.72;;;;;;;;;;5073036;28;20047;-80
2021/10/25 05:18:56;;;;;;;903.70;670.83;;;;;;;;;;5079097;28;20055;-80
2021/10/25 05:21:22;;;;;;;908.03;689.92;;;;;;;;;;5072872;28;20031;-80
2021/10/25 05:23:48;;;;;;;904.67;678.85;;;;;;;;;;5071457;28;20123;-80
2021/10/25 05:26:14;;;;;;;902.53;674.10;;;;;;;;;;5070298;28;20127;-80
2021/10/25 05:28:41;;;;;;;907.13;688.85;;;;;;;;;;5083312;28;20062;-80
2021/10/25 05:31:09;;;;;;;903.75;677.45;;;;;;;;;;5069819;28;20086;-80
2021/10/25 05:33:36;;;;;;;903.80;671.47;;;;;;;;;;5071129;28;20032;-79
2021/10/25 05:36:03;;;;;;;901.75;671.90;;;;;;;;;;5072129;28;20047;-79
2021/10/25 05:38:29;;;;;;;899.80;670.40;;;;;;;;;;5071911;28;20024;-79
2021/10/25 05:40:55;;;;;;;904.55;682.35;;;;;;;;;;5072740;28;20028;-80
2021/10/25 05:43:21;;;;;;;898.15;668.30;;;;;;;;;;5089711;28;20053;-79
2021/10/25 05:45:47;;;;;;;898.92;671.03;;;;;;;;;;5088151;28;20016;-79
2021/10/25 05:48:14;;;;;;;901.28;673.22;;;;;;;;;;5090532;28;20032;-79
2021/10/25 05:50:41;;;;;;;902.75;678.50;;;;;;;;;;5089692;28;20188;-78
2021/10/25 05:53:08;;;;;;;903.75;684.17;;;;;;;;;;5071696;28;20115;-79
2021/10/25 05:55:35;;;;;;;908.30;700.13;;;;;;;;;;5089689;28;20035;-77
2021/10/25 05:58:01;;;;;;;899.63;676.47;;;;;;;;;;5080861;28;20024;-77
2021/10/25 06:00:30;;;;;;;901.25;676.92;;;;;;;;;;5067646;28;20028;-79
2021/10/25 06:02:57;;;;;;;904.17;683.65;;;;;;;;;;5089863;28;20029;-79
2021/10/25 06:05:25;;;;;;;904.38;685.83;;;;;;;;;;5083210;28;20036;-79
2021/10/25 06:07:52;;;;;;;909.33;696.80;;;;;;;;;;5075969;28;20410;-79
2021/10/25 06:10:19;;;;;;;902.95;687.40;;;;;;;;;;5071712;28;20475;-78
2021/10/25 06:12:48;;;;;;;903.20;687.00;;;;;;;;;;5070730;28;20162;-80
2021/10/25 06:15:21;;;;;;;905.67;698.28;;;;;;;;;;5069234;28;20545;-80
2021/10/25 06:17:54;;;;;;;904.92;691.97;;;;;;;;;;5074282;28;20028;-81
2021/10/25 06:20:22;;;;;;;900.78;674.30;;;;;;;;;;5070585;28;20034;-79
2021/10/25 06:22:48;;;;;;;905.15;695.15;;;;;;;;;;5070840;28;20031;-79
2021/10/25 06:25:16;;;;;;;902.15;688.45;;;;;;;;;;5071010;28;20039;-80
2021/10/25 06:27:42;;;;;;;901.67;687.67;;;;;;;;;;5070355;28;20494;-80
2021/10/25 06:30:09;;;;;;;903.47;687.88;;;;;;;;;;5070896;28;20034;-79
2021/10/25 06:32:35;;;;;;;907.35;701.00;;;;;;;;;;5070337;28;20028;-79
2021/10/25 06:35:04;;;;;;;904.80;693.40;;;;;;;;;;5088527;28;20499;-79
2021/10/25 06:37:50;;;;;;;906.17;694.90;;;;;;;;;;5071059;28;20498;-79
2021/10/25 06:40:21;;;;;;;902.33;681.22;;;;;;;;;;5076848;28;20038;-78
2021/10/25 06:42:47;;;;;;;903.28;681.30;;;;;;;;;;5077429;28;20038;-79
2021/10/25 06:45:15;;;;;;;908.60;703.22;;;;;;;;;;5068778;28;20028;-79
2021/10/25 06:47:42;;;;;;;907.20;698.30;;;;;;;;;;5070916;28;20479;-79
2021/10/25 06:50:08;;;;;;;909.38;703.40;;;;;;;;;;5069735;28;20034;-80
2021/10/25 06:52:34;;;;;;;911.05;706.72;;;;;;;;;;5072232;28;20107;-79
2021/10/25 06:55:00;;;;;;;909.83;705.92;;;;;;;;;;5089262;28;20440;-80
2021/10/25 06:57:26;;;;;;;910.97;712.78;;;;;;;;;;5087556;28;20063;-80
2021/10/25 06:59:53;;;;;;;910.92;714.70;;;;;;;;;;5067770;28;20112;-79
2021/10/25 07:02:20;;;;;;;910.17;707.72;;;;;;;;;;5083950;28;20378;-81
2021/10/25 07:04:48;;;;;;;911.10;711.15;;;;;;;;;;5082595;28;20067;-79
2021/10/25 07:07:16;;;;;;;911.00;712.75;;;;;;;;;;5077682;28;20123;-77
2021/10/25 07:09:43;;;;;;;909.08;705.83;;;;;;;;;;5087771;28;20023;-80
2021/10/25 07:12:09;;;;;;;913.25;707.28;;;;;;;;;;5068975;28;20411;-80
2021/10/25 07:14:37;;;;;;;915.72;723.55;;;;;;;;;;5062045;28;20299;-79
2021/10/25 08:10:28;;;;;;;917.63;732.00;;;;;;;;;;5080682;28;20031;-77
2021/10/25 08:12:57;;;;;;;918.47;739.95;;;;;;;;;;5072689;28;20032;-78
2021/10/25 08:15:33;;;;;;;918.35;739.38;;;;;;;;;;5088758;28;20469;-79
2021/10/25 08:18:02;;;;;;;917.03;738.55;;;;;;;;;;5070451;28;20074;-79
2021/10/25 08:20:28;;;;;;;915.08;735.80;;;;;;;;;;5073381;28;20039;-76
2021/10/25 08:22:54;;;;;;;917.03;742.63;;;;;;;;;;5071809;28;20031;-77
2021/10/25 08:25:21;;;;;;;914.75;739.05;;;;;;;;;;5065685;28;20377;-77
2021/10/25 08:27:47;;;;;;;915.00;734.83;;;;;;;;;;5067948;28;20048;-78
2021/10/25 08:30:17;;;;;;;911.65;721.75;;;;;;;;;;5071714;28;20030;-79
2021/10/25 08:40:59;;;;;;;914.88;728.65;;;;;;;;;;5082100;28;20043;-77
2021/10/25 08:43:26;;;;;;;912.30;724.88;;;;;;;;;;5071705;28;20024;-78
2021/10/25 08:45:56;;;;;;;916.92;739.60;;;;;;;;;;5082803;28;20035;-78
2021/10/25 08:48:22;;;;;;;916.25;739.97;;;;;;;;;;5083913;28;20687;-78
2021/10/25 08:50:48;;;;;;;919.60;738.70;;;;;;;;;;5087093;28;20032;-78
2021/10/25 08:53:14;;;;;;;917.10;740.72;;;;;;;;;;5085829;28;20024;-79
2021/10/25 08:55:41;;;;;;;915.50;739.65;;;;;;;;;;5085913;28;20043;-77
2021/10/25 08:58:07;;;;;;;919.88;745.08;;;;;;;;;;5069669;28;20105;-79
2021/10/25 09:00:36;;;;;;;919.30;743.58;;;;;;;;;;5062565;28;20598;-77
2021/10/25 09:03:03;;;;;;;917.80;745.22;;;;;;;;;;5071709;28;20024;-80
2021/10/25 09:05:29;;;;;;;918.10;745.17;;;;;;;;;;5062075;28;20031;-79
2021/10/25 09:08:06;;;;;;;921.92;748.03;;;;;;;;;;5070703;28;20173;-78
2021/10/25 09:10:40;;;;;;;920.05;751.15;;;;;;;;;;5073821;28;20019;-78
2021/10/25 09:13:13;;;;;;;918.83;747.42;;;;;;;;;;5059412;28;20047;-79
2021/10/25 09:15:40;;;;;;;920.05;751.25;;;;;;;;;;5070104;28;20515;-79
2021/10/25 09:18:14;;;;;;;918.22;742.95;;;;;;;;;;5073396;28;20432;-76
2021/10/25 09:20:44;;;;;;;920.97;756.67;;;;;;;;;;5069415;28;20024;-77
2021/10/25 09:23:11;;;;;;;920.25;761.83;;;;;;;;;;5082027;28;20029;-76
2021/10/25 09:25:38;;;;;;;924.58;770.53;;;;;;;;;;5067559;28;20117;-77
2021/10/25 09:28:13;;;;;;;921.15;758.60;;;;;;;;;;5083374;28;20028;-76
2021/10/25 09:30:41;;;;;;;924.78;763.05;;;;;;;;;;5078811;28;20103;-75
2021/10/25 09:33:08;;;;;;;923.53;760.80;;;;;;;;;;5063654;28;20598;-76
2021/10/25 09:35:42;;;;;;;921.15;762.03;;;;;;;;;;5082634;28;20024;-78
2021/10/25 09:38:21;;;;;;;920.03;754.50;;;;;;;;;;5069709;28;20027;-78
2021/10/25 09:41:16;;;;;;;924.63;760.78;;;;;;;;;;5072635;28;20063;-78
2021/10/25 09:49:08;;;;;;;921.55;759.70;;;;;;;;;;5044686;28;20036;-77
2021/10/25 09:51:37;;;;;;;922.83;760.75;;;;;;;;;;5066769;28;20483;-78
2021/10/25 09:54:03;;;;;;;920.60;762.70;;;;;;;;;;5070797;28;20035;-79
2021/10/25 09:56:32;;;;;;;922.08;756.65;;;;;;;;;;5068063;28;20028;-78
2021/10/25 09:59:11;;;;;;;920.00;762.20;;;;;;;;;;5067444;28;20035;-77
2021/10/25 10:01:40;;;;;;;921.00;755.33;;;;;;;;;;5066872;28;20085;-76
2021/10/25 10:04:09;;;;;;;927.38;764.45;;;;;;;;;;5062823;28;20029;-78
2021/10/25 10:06:35;;;;;;;917.38;752.13;;;;;;;;;;5070386;28;20111;-78
2021/10/25 10:09:01;;;;;;;919.47;749.67;;;;;;;;;;5061141;28;20020;-78
2021/10/25 10:11:28;;;;;;;919.20;762.30;;;;;;;;;;5089145;28;20028;-78
2021/10/25 10:13:54;;;;;;;926.45;769.90;;;;;;;;;;5091380;28;20055;-78
2021/10/25 10:16:21;;;;;;;926.85;778.45;;;;;;;;;;5056368;28;20205;-79
2021/10/25 10:18:52;;;;;;;934.28;790.03;;;;;;;;;;5039372;28;20051;-78
2021/10/25 10:21:18;;;;;;;;;;;;;;;;;;5044762;28;20082;-78
2021/10/25 10:23:49;;;;;;;919.55;748.35;;;;;;;;;;5046775;28;19909;-80
2021/10/25 10:26:16;;;;;;;926.33;779.50;;;;;;;;;;5042803;28;20025;-77
2021/10/25 10:28:50;;;;;;;940.00;795.83;;;;;;;;;;5043744;28;20036;-77
2021/10/25 10:31:17;;;;;;;927.78;780.30;;;;;;;;;;5042208;28;20401;-77
2021/10/25 10:33:52;;;;;;;922.60;772.00;;;;;;;;;;5039691;28;20112;-77
2021/10/25 10:36:27;;;;;;;924.47;773.75;;;;;;;;;;5040294;28;20049;-77
2021/10/25 10:39:19;;;;;;;925.97;776.10;;;;;;;;;;5037760;28;20414;-77
2021/10/25 10:41:45;;;;;;;925.15;768.40;;;;;;;;;;5036381;28;20045;-79
2021/10/25 10:44:15;;;;;;;928.47;780.55;;;;;;;;;;5038165;28;20413;-78
2021/10/25 10:46:42;;;;;;;;;;;;;;;;;;5038315;28;20048;-79
2021/10/25 10:49:35;;;;;;;921.70;747.20;;;;;;;;;;5039494;28;19913;-79
2021/10/25 10:52:07;;;;;;;924.08;769.08;;;;;;;;;;5040161;28;20502;-80
2021/10/25 10:54:57;;;;;;;926.90;775.92;;;;;;;;;;5041661;28;20404;-80
2021/10/25 11:00:28;;;;;;;933.97;806.40;;;;;;;;;;5037086;28;20464;-80
2021/10/25 11:03:09;;;;;;;930.78;792.75;;;;;;;;;;5057616;28;20044;-78
2021/10/25 11:05:40;;;;;;;937.17;804.47;;;;;;;;;;5039516;28;20029;-79
2021/10/25 11:08:12;;;;;;;939.47;822.63;;;;;;;;;;5038081;28;20029;-79
2021/10/25 11:10:39;;;;;;;936.92;810.03;;;;;;;;;;5038807;28;20369;-79
2021/10/25 11:13:15;;;;;;;941.10;828.42;;;;;;;;;;5039848;28;20065;-79
2021/10/25 11:15:52;;;;;;;942.00;827.60;;;;;;;;;;5044736;28;20392;-80
2021/10/25 11:18:22;;;;;;;939.03;821.78;;;;;;;;;;5037028;28;20106;-79
2021/10/25 11:20:53;;;;;;;943.60;832.05;;;;;;;;;;5037326;28;20059;-78
2021/10/25 11:23:20;;;;;;;;;;;;;;;;;;5034595;28;20102;-79
2021/10/25 11:25:46;;;;;;;932.53;792.00;;;;;;;;;;5043003;28;19913;-78
2021/10/25 11:28:13;;;;;;;936.50;813.50;;;;;;;;;;5046108;28;20478;-79
2021/10/25 11:30:39;;;;;;;939.03;823.00;;;;;;;;;;5039713;28;20032;-79
2021/10/25 11:33:05;;;;;;;942.03;826.60;;;;;;;;;;5047176;28;20429;-79
2021/10/25 11:35:31;;;;;;;945.28;837.45;;;;;;;;;;5037039;28;20028;-78
2021/10/25 11:38:04;;;;;;;944.03;834.50;;;;;;;;;;5036524;28;20384;-78
2021/10/25 11:40:30;;;;;;;943.80;836.22;;;;;;;;;;5037710;28;20094;-77
2021/10/25 11:43:01;;;;;;;951.28;845.92;;;;;;;;;;5038183;28;20132;-78
2021/10/25 11:45:27;;;;;;;953.33;848.08;;;;;;;;;;5044479;28;20032;-78
2021/10/25 11:47:54;;;;;;;963.35;857.60;;;;;;;;;;5046104;28;20029;-78
2021/10/25 11:50:24;;;;;;;970.10;864.17;;;;;;;;;;5036885;28;20473;-78
2021/10/25 11:52:54;;;;;;;963.20;857.72;;;;;;;;;;5036892;28;20035;-76
2021/10/25 11:55:22;;;;;;;964.20;858.67;;;;;;;;;;5046821;28;20036;-77
2021/10/25 11:58:00;;;;;;;967.33;861.50;;;;;;;;;;5049050;28;20033;-78
2021/10/25 12:00:27;;;;;;;962.60;857.00;;;;;;;;;;5042391;28;20067;-78
2021/10/25 12:03:08;;;;;;;979.55;873.38;;;;;;;;;;5039799;28;20033;-77
2021/10/25 12:05:33;;;;;;;;;;;;;;;;;;5044240;28;20112;-77
2021/10/25 12:08:00;;;;;;;944.55;837.05;;;;;;;;;;5046849;28;20351;-78
2021/10/25 12:10:27;;;;;;;968.38;862.70;;;;;;;;;;5046830;28;20610;-78
2021/10/25 12:12:53;;;;;;;978.95;872.80;;;;;;;;;;5041925;28;20496;-77
2021/10/25 12:15:20;;;;;;;981.55;875.42;;;;;;;;;;5044663;28;20454;-77
2021/10/25 12:17:48;;;;;;;987.40;881.13;;;;;;;;;;5065673;28;20381;-78
2021/10/25 12:20:21;;;;;;;993.90;887.20;;;;;;;;;;5069828;28;20131;-78
2021/10/25 12:22:56;;;;;;;990.95;884.53;;;;;;;;;;5069447;28;20111;-80
2021/10/25 12:25:22;;;;;;;983.88;877.63;;;;;;;;;;5067936;28;20502;-78
2021/10/25 12:27:48;;;;;;;976.53;870.67;;;;;;;;;;5078917;28;20024;-78
2021/10/25 12:30:15;;;;;;;975.75;869.88;;;;;;;;;;5072906;28;20533;-79
2021/10/25 12:32:58;;;;;;;986.15;879.97;;;;;;;;;;5071508;28;20072;-78
2021/10/25 12:35:35;;;;;;;979.17;872.65;;;;;;;;;;5078486;28;20035;-78
2021/10/25 12:38:02;;;;;;;992.40;885.80;;;;;;;;;;5084017;28;20028;-78
2021/10/25 12:40:29;;;;;;;989.55;883.15;;;;;;;;;;5087555;28;20032;-79
2021/10/25 12:43:01;;;;;;;990.13;883.92;;;;;;;;;;5075028;28;20040;-78
2021/10/25 12:45:38;;;;;;;986.78;880.67;;;;;;;;;;5084819;28;20031;-78
2021/10/25 12:48:04;;;;;;;976.08;870.15;;;;;;;;;;5085524;28;20024;-81
2021/10/25 12:50:32;;;;;;;987.88;881.67;;;;;;;;;;5084147;28;20048;-78
2021/10/25 12:52:58;;;;;;;977.63;871.70;;;;;;;;;;5068081;28;20090;-79
2021/10/25 12:55:24;;;;;;;993.03;886.40;;;;;;;;;;5085769;28;20032;-78
2021/10/25 12:57:54;;;;;;;977.67;871.95;;;;;;;;;;5069189;28;20032;-81
2021/10/25 13:00:20;;;;;;;960.05;854.88;;;;;;;;;;5069211;28;20062;-79
2021/10/25 13:02:52;;;;;;;947.70;843.15;;;;;;;;;;5069075;28;20067;-79
2021/10/25 13:05:34;;;;;;;971.58;865.78;;;;;;;;;;5083885;28;20016;-79
2021/10/25 13:08:02;;;;;;;972.92;867.15;;;;;;;;;;5068577;28;20020;-78
2021/10/25 13:10:31;;;;;;;985.40;879.03;;;;;;;;;;5061473;28;20035;-79
2021/10/25 13:12:59;;;;;;;978.22;872.55;;;;;;;;;;5083324;28;20028;-79
2021/10/25 13:15:25;;;;;;;994.72;887.83;;;;;;;;;;5087285;28;20028;-80
2021/10/25 13:17:52;;;;;;;984.35;878.05;;;;;;;;;;5068665;28;20032;-79
2021/10/25 13:20:21;;;;;;;992.92;885.95;;;;;;;;;;5091732;28;20028;-79
2021/10/25 13:22:47;;;;;;;991.17;884.42;;;;;;;;;;5070577;28;20030;-79
2021/10/25 13:25:13;;;;;;;978.58;872.42;;;;;;;;;;5072599;28;20426;-79
2021/10/25 13:27:42;;;;;;;973.13;867.40;;;;;;;;;;5072501;28;20073;-79
2021/10/25 13:30:09;;;;;;;972.05;866.30;;;;;;;;;;5074833;28;20024;-79
2021/10/25 13:32:35;;;;;;;964.30;859.10;;;;;;;;;;5069690;28;20032;-79
2021/10/25 13:35:02;;;;;;;970.53;865.33;;;;;;;;;;5064654;28;20298;-78
2021/10/25 13:37:29;;;;;;;964.85;859.35;;;;;;;;;;5065238;28;20028;-79
2021/10/25 13:39:56;;;;;;;977.83;872.10;;;;;;;;;;5053280;28;20036;-78
2021/10/25 13:42:22;;;;;;;1002.58;895.63;;;;;;;;;;5072170;28;20113;-79
2021/10/25 13:44:50;;;;;;;959.17;854.47;;;;;;;;;;5087444;28;20035;-79
2021/10/25 13:47:16;;;;;;;971.83;866.30;;;;;;;;;;5069766;28;20074;-78
2021/10/25 13:49:44;;;;;;;944.42;838.67;;;;;;;;;;5080481;28;20035;-78
2021/10/25 13:52:10;;;;;;;997.95;891.38;;;;;;;;;;5066095;28;20028;-79
2021/10/25 13:54:37;;;;;;;992.97;887.22;;;;;;;;;;5065489;28;20028;-79
2021/10/25 13:57:08;;;;;;;997.95;892.05;;;;;;;;;;5088418;28;20024;-80
2021/10/25 13:59:35;;;;;;;;;;;;;;;;;;5071586;28;20042;-79
2021/10/25 14:02:01;;;;;;;967.47;862.67;;;;;;;;;;5071220;28;19935;-79
2021/10/25 14:04:27;;;;;;;984.70;878.83;;;;;;;;;;5071197;28;20246;-79
2021/10/25 14:06:54;;;;;;;1004.85;898.45;;;;;;;;;;5072059;28;20399;-79
2021/10/25 14:09:20;;;;;;;1008.78;902.40;;;;;;;;;;5069693;28;20515;-79
2021/10/25 14:11:50;;;;;;;1004.15;897.28;;;;;;;;;;5088702;28;20066;-79
2021/10/25 14:14:18;;;;;;;998.80;892.05;;;;;;;;;;5066413;28;20406;-78
2021/10/25 14:16:52;;;;;;;996.42;889.92;;;;;;;;;;5054876;28;20490;-79
2021/10/25 14:19:19;;;;;;;996.10;889.50;;;;;;;;;;5046790;28;20029;-78
2021/10/25 14:21:45;;;;;;;991.15;885.08;;;;;;;;;;5043586;28;20492;-79
2021/10/25 14:24:11;;;;;;;1016.30;908.88;;;;;;;;;;5041547;28;20389;-79
2021/10/25 14:26:38;;;;;;;1030.65;922.58;;;;;;;;;;5045994;28;20025;-79
2021/10/25 14:29:05;;;;;;;996.35;890.08;;;;;;;;;;5041814;28;20021;-79
2021/10/25 14:31:32;;;;;;;1000.35;893.90;;;;;;;;;;5044526;28;20053;-79
2021/10/25 14:33:58;;;;;;;1005.38;898.17;;;;;;;;;;5042199;28;20049;-79
2021/10/25 14:36:25;;;;;;;1009.65;902.55;;;;;;;;;;5043161;28;20641;-79
2021/10/25 14:39:07;;;;;;;993.95;887.50;;;;;;;;;;5045502;28;20036;-79
2021/10/25 14:42:22;;;;;;;972.03;866.80;;;;;;;;;;5048455;28;20020;-79
2021/10/25 14:44:32;;;;;;;959.45;854.63;;;;;;;;;;5035484;28;20485;-79
2021/10/25 14:57:23;;;;;;;986.75;880.60;;;;;;;;;;5049078;28;20087;-79
2021/10/25 14:59:51;;;;;;;992.10;885.97;;;;;;;;;;5043598;28;20120;-79
2021/10/25 15:02:18;;;;;;;993.97;887.67;;;;;;;;;;5047527;28;20116;-79
2021/10/25 15:04:45;;;;;;;973.33;867.28;;;;;;;;;;5044423;28;20588;-79
2021/10/25 15:07:12;;;;;;;1000.00;893.33;;;;;;;;;;5045298;28;20021;-80
2021/10/25 15:09:40;;;;;;;1010.42;902.95;;;;;;;;;;5046872;28;20029;-79
2021/10/25 15:12:06;;;;;;;936.63;831.40;;;;;;;;;;5042245;28;20017;-79
2021/10/25 15:14:40;;;;;;;942.08;837.90;;;;;;;;;;5037991;28;20036;-79
2021/10/25 15:17:06;;;;;;;939.67;832.97;;;;;;;;;;5077358;28;20089;-79
2021/10/25 15:19:35;;;;;;;1003.70;896.83;;;;;;;;;;5068624;28;20131;-79
2021/10/25 15:22:02;;;;;;;1003.78;897.03;;;;;;;;;;5072961;28;20068;-79
2021/10/25 15:24:28;;;;;;;1012.30;904.92;;;;;;;;;;5072488;28;20036;-79
2021/10/25 15:26:56;;;;;;;1009.22;901.90;;;;;;;;;;5070231;28;20129;-79
2021/10/25 15:29:25;;;;;;;1011.58;904.30;;;;;;;;;;5082103;28;20406;-79
2021/10/25 15:31:51;;;;;;;1005.92;899.33;;;;;;;;;;5070290;28;20035;-79
2021/10/25 15:34:18;;;;;;;993.45;886.88;;;;;;;;;;5070194;28;20467;-80
2021/10/25 15:36:44;;;;;;;979.33;873.42;;;;;;;;;;5077715;28;20056;-79
2021/10/25 15:39:10;;;;;;;974.40;868.75;;;;;;;;;;5068354;28;20032;-79
2021/10/25 15:41:36;;;;;;;977.72;871.88;;;;;;;;;;5073815;28;20012;-79
2021/10/25 15:44:03;;;;;;;989.05;882.38;;;;;;;;;;5077322;28;20057;-79
2021/10/25 15:46:29;;;;;;;994.67;887.88;;;;;;;;;;5086693;28;20470;-79
2021/10/25 15:48:55;;;;;;;992.33;885.92;;;;;;;;;;5067176;28;20035;-79
2021/10/25 15:51:21;;;;;;;999.63;892.92;;;;;;;;;;5079930;28;20033;-79
2021/10/25 15:53:47;;;;;;;1002.33;895.35;;;;;;;;;;5068934;28;20029;-78
2021/10/25 15:56:13;;;;;;;978.55;872.97;;;;;;;;;;5085345;28;20039;-79